Time;durP1;ratioP1;P1;durP2;ratioP2;P2;SDS_P1;SDS_P2;PMS_P1;PMS_P2;Temp;Humidity;BMP_temperature;BMP_pressure;BME280_temperature;BME280_humidity;BME280_pressure;Samples;Min_cycle;Max_cycle;Signal;HPM_P1;HPM_P2
2023/06/21 03:47:32;;;;;;;;;;;;;;;25.76;56.26;96945.31;4223946;27;10321;-68
2023/06/21 03:49:36;;;;;;;;;;;;;;;26.03;55.57;96953.69;4215498;28;5856;-66
2023/06/21 03:51:39;;;;;;;;;;;;;;;26.23;55.21;96946.41;4213861;28;5750;-70
2023/06/21 03:53:42;;;;;;;;;;;;;;;26.39;55.10;96948.69;4217031;27;5695;-67
2023/06/21 03:55:45;;;;;;;;;;;;;;;26.51;54.92;96944.75;4216718;28;6407;-67
2023/06/21 03:57:48;;;;;;;;;;;;;;;26.64;54.75;96938.59;4221859;28;5937;-68
2023/06/21 03:59:51;;;;;;;;;;;;;;;26.73;54.25;96942.28;4219310;28;5778;-70
2023/06/21 04:01:54;;;;;;;;;;;;;;;26.81;54.16;96933.47;4217969;28;5612;-68
2023/06/21 04:04:00;;;;;;;;;;;;;;;26.86;54.22;96936.09;4214228;28;5684;-69
2023/06/21 04:06:03;;;;;;;;;;;;;;;26.94;54.08;96945.47;4218823;28;5755;-68
2023/06/21 04:08:06;;;;;;;;;;;;;;;26.98;54.00;96950.03;4230966;28;5767;-69
2023/06/21 04:10:09;;;;;;;;;;;;;;;27.03;53.91;96949.16;4227919;28;5688;-70
2023/06/21 04:12:13;;;;;;;;;;;;;;;27.06;53.64;96955.91;4224931;28;5676;-68
2023/06/21 04:14:16;;;;;;;;;;;;;;;27.06;53.87;96954.00;4226348;28;5720;-68
2023/06/21 04:16:19;;;;;;;;;;;;;;;27.04;53.64;96958.91;4224943;28;5612;-68
2023/06/21 04:18:21;;;;;;;;;;;;;;;26.98;53.97;96963.59;4220833;28;5602;-70
2023/06/21 04:20:26;;;;;;;;;;;;;;;26.95;54.05;96964.16;4230999;28;5096;-67
2023/06/21 04:22:29;;;;;;;;;;;;;;;26.97;53.97;96974.75;4222725;28;5799;-67
2023/06/21 04:24:32;;;;;;;;;;;;;;;26.96;53.84;96978.56;4222515;28;6714;-68
2023/06/21 04:26:35;;;;;;;;;;;;;;;26.99;53.90;96988.81;4224088;28;5645;-67
2023/06/21 04:28:40;;;;;;;;;;;;;;;27.03;53.93;96992.56;4228865;28;5853;-66
2023/06/21 04:30:42;;;;;;;;;;;;;;;27.08;53.89;96992.53;4222295;28;5904;-66
2023/06/21 04:32:46;;;;;;;;;;;;;;;27.12;53.87;97004.38;4224982;28;5620;-66
2023/06/21 04:34:50;;;;;;;;;;;;;;;27.14;53.92;97004.88;4220864;28;5608;-66
2023/06/21 04:36:54;;;;;;;;;;;;;;;27.19;53.85;97015.69;4221553;28;5755;-66
2023/06/21 04:38:57;;;;;;;;;;;;;;;27.20;53.74;97028.16;4217669;28;5751;-69
2023/06/21 04:41:00;;;;;;;;;;;;;;;27.21;53.72;97024.34;4221219;28;5908;-70
2023/06/21 04:43:03;;;;;;;;;;;;;;;27.24;53.77;97036.50;4219981;28;5801;-71
2023/06/21 04:45:08;;;;;;;;;;;;;;;27.26;53.83;97034.28;4224633;28;5605;-68
2023/06/21 04:47:11;;;;;;;;;;;;;;;27.27;53.72;97038.63;4220440;28;5624;-68
2023/06/21 04:49:17;;;;;;;;;;;;;;;27.28;53.78;97041.03;4218332;28;7700;-72
2023/06/21 04:51:20;;;;;;;;;;;;;;;27.31;53.74;97044.28;4213061;28;5628;-67
2023/06/21 04:53:29;;;;;;;;;;;;;;;27.32;53.83;97045.91;4218714;28;5601;-70
2023/06/21 04:55:32;;;;;;;;;;;;;;;27.32;53.87;97052.13;4209963;28;5828;-67
2023/06/21 04:57:35;;;;;;;;;;;;;;;27.34;53.85;97063.50;4218009;28;5605;-69
2023/06/21 04:59:38;;;;;;;;;;;;;;;27.36;53.80;97053.16;4211610;28;7427;-70
2023/06/21 05:01:41;;;;;;;;;;;;;;;27.37;53.91;97059.38;4215123;28;5641;-70
2023/06/21 05:03:47;;;;;;;;;;;;;;;27.39;53.89;97073.47;4212566;28;5636;-71
2023/06/21 05:05:50;;;;;;;;;;;;;;;27.40;53.99;97075.06;4206778;28;5617;-69
2023/06/21 05:07:53;;;;;;;;;;;;;;;27.40;53.85;97064.22;4208469;28;5838;-70
2023/06/21 05:09:57;;;;;;;;;;;;;;;27.40;53.96;97058.78;4207188;28;5726;-71
2023/06/21 05:12:00;;;;;;;;;;;;;;;27.39;53.83;97057.97;4208820;28;5940;-69
2023/06/21 05:14:03;;;;;;;;;;;;;;;27.38;53.62;97055.56;4213497;28;5846;-69
2023/06/21 05:16:06;;;;;;;;;;;;;;;27.37;54.08;97070.25;4209102;28;5703;-68
2023/06/21 05:18:09;;;;;;;;;;;;;;;27.38;53.82;97077.28;4207751;28;7854;-70
2023/06/21 05:20:12;;;;;;;;;;;;;;;27.38;53.80;97082.72;4209103;28;5708;-70
2023/06/21 05:22:17;;;;;;;;;;;;;;;27.40;53.70;97084.03;4210198;28;5763;-68
2023/06/21 05:24:20;;;;;;;;;;;;;;;27.40;53.70;97102.22;4215810;28;7830;-68
2023/06/21 05:26:24;;;;;;;;;;;;;;;27.39;53.66;97106.03;4204259;28;5754;-69
2023/06/21 05:28:27;;;;;;;;;;;;;;;27.39;53.57;97116.91;4199558;28;5644;-69
2023/06/21 05:30:30;;;;;;;;;;;;;;;27.38;53.67;97124.22;4209781;28;5730;-70
2023/06/21 05:32:33;;;;;;;;;;;;;;;27.38;53.42;97121.53;4214040;28;5623;-69
2023/06/21 05:34:36;;;;;;;;;;;;;;;27.38;53.55;97120.72;4213798;28;5114;-70
2023/06/21 05:36:39;;;;;;;;;;;;;;;27.38;53.46;97118.00;4216208;28;5658;-69
2023/06/21 05:38:42;;;;;;;;;;;;;;;27.38;53.23;97112.56;4208818;28;5629;-69
2023/06/21 05:40:45;;;;;;;;;;;;;;;27.36;53.26;97109.34;4218663;28;5677;-69
2023/06/21 05:42:49;;;;;;;;;;;;;;;27.30;53.30;97113.25;4211040;28;5744;-69
2023/06/21 05:44:52;;;;;;;;;;;;;;;27.29;53.06;97120.56;4216522;28;5739;-70
2023/06/21 05:46:55;;;;;;;;;;;;;;;27.30;53.10;97107.81;4214486;28;5073;-69
2023/06/21 05:48:58;;;;;;;;;;;;;;;27.32;52.88;97102.91;4213985;28;5818;-70
2023/06/21 05:51:01;;;;;;;;;;;;;;;27.32;53.01;97105.63;4217744;28;5686;-70
2023/06/21 05:53:04;;;;;;;;;;;;;;;27.33;53.15;97107.22;4216862;28;5662;-70
2023/06/21 05:55:07;;;;;;;;;;;;;;;27.34;53.06;97108.84;4209200;28;5628;-70
2023/06/21 05:57:11;;;;;;;;;;;;;;;27.34;53.07;97108.84;4206480;28;5666;-70
2023/06/21 05:59:15;;;;;;;;;;;;;;;27.36;53.01;97125.63;4212697;28;5089;-70
2023/06/21 06:01:21;;;;;;;;;;;;;;;27.35;52.76;97124.81;4217803;28;6437;-69
2023/06/21 06:03:27;;;;;;;;;;;;;;;27.34;52.85;97127.84;4218270;28;5757;-70
2023/06/21 06:05:30;;;;;;;;;;;;;;;27.32;52.84;97122.72;4217872;28;5661;-70
2023/06/21 06:07:33;;;;;;;;;;;;;;;27.33;52.94;97128.94;4217628;28;5717;-70
2023/06/21 06:09:36;;;;;;;;;;;;;;;27.33;52.96;97132.47;4218270;28;5728;-70
2023/06/21 06:11:39;;;;;;;;;;;;;;;27.34;52.95;97138.69;4218528;28;5287;-70
2023/06/21 06:13:42;;;;;;;;;;;;;;;27.33;53.00;97142.50;4217909;28;5738;-70
2023/06/21 06:15:46;;;;;;;;;;;;;;;27.33;52.72;97126.22;4217825;28;5719;-71
2023/06/21 06:17:49;;;;;;;;;;;;;;;27.31;52.59;97112.16;4218003;28;5749;-70
2023/06/21 06:19:52;;;;;;;;;;;;;;;27.22;52.43;97095.69;4218066;28;5703;-70
2023/06/21 06:21:54;;;;;;;;;;;;;;;27.17;52.17;97083.00;4217626;28;5696;-70
2023/06/21 06:23:57;;;;;;;;;;;;;;;27.20;51.83;97082.44;4218098;28;5781;-70
2023/06/21 06:26:00;;;;;;;;;;;;;;;27.22;51.55;97082.94;4217607;28;6358;-70
2023/06/21 06:28:03;;;;;;;;;;;;;;;27.28;51.44;97076.31;4214398;28;5669;-70
2023/06/21 06:30:07;;;;;;;;;;;;;;;27.38;51.16;97069.94;4209463;28;5077;-71
2023/06/21 06:32:12;;;;;;;;;;;;;;;27.43;51.11;97069.06;4217982;28;6329;-71
2023/06/21 06:34:14;;;;;;;;;;;;;;;27.42;50.78;97068.28;4217540;28;5719;-71
2023/06/21 06:36:17;;;;;;;;;;;;;;;27.41;50.62;97057.69;4217645;28;5605;-70
2023/06/21 06:38:20;;;;;;;;;;;;;;;27.44;50.47;97063.34;4214913;28;5758;-70
2023/06/21 06:40:23;;;;;;;;;;;;;;;27.48;50.63;97067.06;4210992;28;6326;-71
2023/06/21 06:42:27;;;;;;;;;;;;;;;27.51;50.19;97061.03;4214681;28;5617;-70
2023/06/21 06:44:29;;;;;;;;;;;;;;;27.54;50.18;97054.25;4204520;28;5631;-70
2023/06/21 06:46:33;;;;;;;;;;;;;;;27.52;50.06;97049.13;4208652;28;5838;-70
2023/06/21 06:48:38;;;;;;;;;;;;;;;27.51;49.84;97046.66;4215948;28;5622;-70
2023/06/21 06:50:42;;;;;;;;;;;;;;;27.54;49.82;97037.94;4208626;28;5708;-70
2023/06/21 06:52:46;;;;;;;;;;;;;;;27.59;49.74;97037.06;4210846;28;5846;-71
2023/06/21 06:54:49;;;;;;;;;;;;;;;27.63;49.57;97030.72;4202945;28;6652;-70
2023/06/21 06:56:52;;;;;;;;;;;;;;;27.67;49.26;97026.34;4214456;28;5760;-70
2023/06/21 06:58:55;;;;;;;;;;;;;;;27.65;49.24;97028.56;4209655;28;5760;-70
2023/06/21 07:00:58;;;;;;;;;;;;;;;27.67;49.16;97025.56;4216401;28;5681;-70
2023/06/21 07:03:01;;;;;;;;;;;;;;;27.69;48.93;97034.19;4205068;28;5688;-70
2023/06/21 07:05:06;;;;;;;;;;;;;;;27.72;49.13;97034.41;4212253;28;5716;-71
2023/06/21 07:07:09;;;;;;;;;;;;;;;27.73;48.79;97046.88;4212036;28;6305;-70
2023/06/21 07:09:12;;;;;;;;;;;;;;;27.76;48.64;97043.59;4217325;28;5722;-70
2023/06/21 07:11:15;;;;;;;;;;;;;;;27.77;48.74;97039.78;4216773;28;7676;-70
2023/06/21 07:13:18;;;;;;;;;;;;;;;27.79;48.51;97032.13;4210683;28;5612;-70
2023/06/21 07:15:22;;;;;;;;;;;;;;;27.79;48.83;97029.41;4216859;28;5690;-70
2023/06/21 07:17:28;;;;;;;;;;;;;;;27.79;48.73;97036.75;4198960;28;5763;-70
2023/06/21 07:19:31;;;;;;;;;;;;;;;27.81;48.82;97038.06;4215783;28;5604;-70
2023/06/21 07:21:36;;;;;;;;;;;;;;;27.84;48.71;97042.88;4216481;28;5776;-70
2023/06/21 07:23:39;;;;;;;;;;;;;;;27.85;48.85;97044.50;4216745;28;5590;-70
2023/06/21 07:25:43;;;;;;;;;;;;;;;27.88;49.12;97047.75;4217153;28;5770;-71
2023/06/21 07:27:46;;;;;;;;;;;;;;;27.91;49.16;97036.28;4217332;28;5828;-70
2023/06/21 07:29:49;;;;;;;;;;;;;;;27.86;49.28;97039.88;4217178;28;5661;-71
2023/06/21 07:31:52;;;;;;;;;;;;;;;27.82;49.66;97036.16;4204105;28;5636;-71
2023/06/21 07:33:57;;;;;;;;;;;;;;;27.78;49.77;97027.78;4204336;28;5673;-71
2023/06/21 07:36:00;;;;;;;;;;;;;;;27.78;50.03;97025.06;4216908;28;5609;-71
2023/06/21 07:38:06;;;;;;;;;;;;;;;27.77;50.20;97025.38;4216288;28;5085;-70
2023/06/21 07:40:10;;;;;;;;;;;;;;;27.76;50.44;97024.56;4217113;28;5621;-70
2023/06/21 07:42:13;;;;;;;;;;;;;;;27.78;50.61;97027.00;4208090;28;5755;-70
2023/06/21 07:44:17;;;;;;;;;;;;;;;27.80;50.61;97024.78;4215702;28;5772;-68
2023/06/21 07:46:22;;;;;;;;;;;;;;;27.80;50.93;97019.34;4212625;28;5591;-69
2023/06/21 07:48:27;;;;;;;;;;;;;;;27.79;50.89;97021.25;4211868;28;5872;-70
2023/06/21 07:50:30;;;;;;;;;;;;;;;27.77;51.16;97007.16;4207080;28;5676;-69
2023/06/21 07:52:33;;;;;;;;;;;;;;;27.76;51.25;97002.03;4214504;28;5632;-71
2023/06/21 07:54:38;;;;;;;;;;;;;;;27.79;51.24;96999.53;4205469;28;6337;-69
2023/06/21 07:56:41;;;;;;;;;;;;;;;27.83;51.46;97003.25;4216845;28;5617;-69
2023/06/21 07:58:44;;;;;;;;;;;;;;;27.87;51.33;97005.38;4212740;28;5532;-69
2023/06/21 08:00:47;;;;;;;;;;;;;;;27.88;51.39;97007.00;4213001;28;5878;-69
2023/06/21 08:02:51;;;;;;;;;;;;;;;27.89;51.56;97020.28;4216082;28;5669;-69
2023/06/21 08:04:54;;;;;;;;;;;;;;;27.88;51.58;97020.56;4212506;28;5632;-69
2023/06/21 08:06:58;;;;;;;;;;;;;;;27.88;51.68;97026.00;4216609;28;5620;-69
2023/06/21 08:09:00;;;;;;;;;;;;;;;27.90;51.44;97021.88;4212156;28;5695;-70
2023/06/21 08:11:06;;;;;;;;;;;;;;;27.93;51.54;97031.34;4213513;28;5629;-70
2023/06/21 08:13:09;;;;;;;;;;;;;;;27.92;51.74;97029.72;4211413;28;5680;-70
2023/06/21 08:15:11;;;;;;;;;;;;;;;27.93;51.78;97024.00;4207764;28;5837;-69
2023/06/21 08:17:14;;;;;;;;;;;;;;;27.91;51.67;97025.41;4208186;28;6370;-69
2023/06/21 08:19:17;;;;;;;;;;;;;;;27.92;51.70;97027.81;4199908;28;5715;-69
2023/06/21 08:21:20;;;;;;;;;;;;;;;27.94;51.63;97024.81;4215904;28;5701;-70
2023/06/21 08:23:24;;;;;;;;;;;;;;;27.96;51.70;97036.16;4218488;28;5670;-70
2023/06/21 08:25:28;;;;;;;;;;;;;;;27.95;51.75;97029.13;4214645;28;5625;-70
2023/06/21 08:27:33;;;;;;;;;;;;;;;27.96;51.80;97036.97;4211778;28;5613;-71
2023/06/21 08:29:36;;;;;;;;;;;;;;;27.99;51.79;97036.41;4219695;28;5601;-70
2023/06/21 08:31:39;;;;;;;;;;;;;;;27.99;51.82;97035.59;4218192;28;5700;-70
2023/06/21 08:33:42;;;;;;;;;;;;;;;28.00;51.82;97042.63;4217689;28;6504;-70
2023/06/21 08:35:45;;;;;;;;;;;;;;;27.99;51.82;97038.31;4211184;28;5782;-70
2023/06/21 08:37:55;;;;;;;;;;;;;;;28.00;51.58;97034.50;4219379;28;6322;-70
2023/06/21 08:39:59;;;;;;;;;;;;;;;28.02;51.87;97032.28;4219496;28;5662;-70
2023/06/21 08:42:02;;;;;;;;;;;;;;;28.04;51.72;97035.50;4219468;28;5840;-70
2023/06/21 08:44:06;;;;;;;;;;;;;;;28.07;51.80;97029.44;4217618;28;5662;-70
2023/06/21 08:46:10;;;;;;;;;;;;;;;28.08;51.73;97025.63;4215685;28;5807;-70
2023/06/21 08:48:17;;;;;;;;;;;;;;;28.08;51.77;97025.63;4219872;28;5787;-70
2023/06/21 08:50:21;;;;;;;;;;;;;;;28.08;51.78;97029.16;4215895;28;5577;-70
2023/06/21 08:52:28;;;;;;;;;;;;;;;28.10;51.68;97039.75;4210324;28;6470;-70
2023/06/21 08:54:34;;;;;;;;;;;;;;;28.11;51.76;97044.88;4211567;28;5750;-70
2023/06/21 08:56:45;;;;;;;;;;;;;;;28.13;51.72;97047.28;4219333;28;5617;-70
2023/06/21 08:58:54;;;;;;;;;;;;;;;28.16;51.82;97051.31;4219342;28;5661;-70
2023/06/21 09:01:00;;;;;;;;;;;;;;;28.19;51.65;97056.94;4219441;28;5661;-70
2023/06/21 09:03:10;;;;;;;;;;;;;;;28.18;51.63;97054.53;4214151;28;5677;-70
2023/06/21 09:05:18;;;;;;;;;;;;;;;28.20;51.61;97055.03;4218483;28;6528;-70
2023/06/21 09:07:23;;;;;;;;;;;;;;;28.24;51.70;97056.88;4218701;28;5846;-70
2023/06/21 09:09:27;;;;;;;;;;;;;;;28.28;51.60;97051.66;4219056;28;5670;-70
2023/06/21 09:11:31;;;;;;;;;;;;;;;28.31;51.45;97054.56;4218209;28;5616;-70
2023/06/21 09:13:37;;;;;;;;;;;;;;;28.31;51.54;97051.84;4218374;28;5636;-70
2023/06/21 09:15:40;;;;;;;;;;;;;;;28.29;51.52;97059.50;4218284;28;5884;-70
2023/06/21 09:17:47;;;;;;;;;;;;;;;28.28;51.44;97052.47;4219140;28;5748;-70
2023/06/21 09:19:50;;;;;;;;;;;;;;;28.29;51.52;97043.19;4218952;28;5601;-70
2023/06/21 09:21:57;;;;;;;;;;;;;;;28.30;51.38;97033.94;4218832;28;5620;-70
2023/06/21 09:24:00;;;;;;;;;;;;;;;28.33;51.29;97033.34;4218329;28;6681;-70
2023/06/21 09:26:03;;;;;;;;;;;;;;;28.36;51.25;97038.19;4213412;28;5098;-70
2023/06/21 09:28:06;;;;;;;;;;;;;;;28.37;51.04;97034.34;4213091;28;5720;-70
2023/06/21 09:30:10;;;;;;;;;;;;;;;28.37;51.12;97026.19;4218271;28;5609;-70
2023/06/21 09:32:33;;;;;;;;;;;;;;;28.38;51.40;97025.09;4216700;28;5688;-70
2023/06/21 09:34:39;;;;;;;;;;;;;;;28.40;51.17;97031.00;4217731;28;6338;-70
2023/06/21 09:36:42;;;;;;;;;;;;;;;28.42;50.86;97031.50;4214153;28;5806;-70
2023/06/21 09:38:47;;;;;;;;;;;;;;;28.41;50.81;97029.91;4215859;28;6031;-70
2023/06/21 09:40:50;;;;;;;;;;;;;;;28.38;50.96;97027.81;4202220;28;5644;-70
2023/06/21 09:42:54;;;;;;;;;;;;;;;28.39;50.73;97025.88;4212791;28;5624;-70
2023/06/21 09:44:57;;;;;;;;;;;;;;;28.40;50.76;97028.28;4216610;28;5613;-71
2023/06/21 09:47:04;;;;;;;;;;;;;;;28.42;50.68;97028.78;4217416;28;5625;-70
2023/06/21 09:49:08;;;;;;;;;;;;;;;28.44;50.65;97033.16;4218168;28;5744;-70
2023/06/21 09:51:14;;;;;;;;;;;;;;;28.42;50.78;97041.59;4218406;28;5633;-70
2023/06/21 09:53:23;;;;;;;;;;;;;;;28.45;50.55;97038.28;4215811;28;5716;-70
2023/06/21 09:55:26;;;;;;;;;;;;;;;28.44;50.57;97044.84;4213175;28;5678;-70
2023/06/21 09:57:29;;;;;;;;;;;;;;;28.44;50.60;97038.59;4189805;28;5819;-70
2023/06/21 09:59:37;;;;;;;;;;;;;;;28.45;50.37;97029.31;4218139;28;5624;-70
2023/06/21 10:01:45;;;;;;;;;;;;;;;28.45;50.48;97032.84;4218208;28;5743;-69
2023/06/21 10:03:48;;;;;;;;;;;;;;;28.44;50.37;97033.16;4210441;28;5722;-70
2023/06/21 10:05:56;;;;;;;;;;;;;;;28.42;50.44;97028.78;4217081;28;5628;-70
2023/06/21 10:08:00;;;;;;;;;;;;;;;28.43;50.35;97021.47;4217910;28;5605;-69
2023/06/21 10:10:06;;;;;;;;;;;;;;;28.45;50.38;97019.25;4211852;28;5676;-70
2023/06/21 10:12:10;;;;;;;;;;;;;;;28.46;50.28;97017.34;4216166;28;5613;-69
2023/06/21 10:14:20;;;;;;;;;;;;;;;28.47;50.28;97016.22;4215587;28;5838;-70
2023/06/21 10:16:24;;;;;;;;;;;;;;;28.48;50.18;97006.97;4216229;28;5637;-70
2023/06/21 10:18:28;;;;;;;;;;;;;;;28.49;50.15;97019.44;4209431;28;5696;-70
2023/06/21 10:20:32;;;;;;;;;;;;;;;28.51;50.04;97023.47;4201658;28;5694;-70
2023/06/21 10:22:36;;;;;;;;;;;;;;;28.52;50.09;97025.06;4212818;28;5604;-70
2023/06/21 10:24:47;;;;;;;;;;;;;;;28.52;50.07;97024.25;4208074;28;7402;-70
2023/06/21 10:26:50;;;;;;;;;;;;;;;28.55;50.08;97029.13;4217566;28;7341;-70
2023/06/21 10:28:58;;;;;;;;;;;;;;;28.55;50.18;97032.66;4217701;28;5678;-70
2023/06/21 10:31:03;;;;;;;;;;;;;;;28.55;50.06;97032.66;4217731;28;5645;-70
2023/06/21 10:33:09;;;;;;;;;;;;;;;28.55;49.94;97029.94;4217887;28;5673;-70
2023/06/21 10:35:16;;;;;;;;;;;;;;;28.57;49.94;97029.63;4216876;28;5708;-70
2023/06/21 10:37:25;;;;;;;;;;;;;;;28.58;50.00;97023.88;4216870;28;5625;-70
2023/06/21 10:39:32;;;;;;;;;;;;;;;28.60;49.91;97029.00;4200907;28;5643;-69
2023/06/21 10:41:36;;;;;;;;;;;;;;;28.61;49.88;97036.06;4208912;28;5628;-70
2023/06/21 10:43:41;;;;;;;;;;;;;;;28.60;49.69;97034.44;4217818;28;6405;-70
2023/06/21 10:45:46;;;;;;;;;;;;;;;28.58;49.77;97042.91;4213038;28;5761;-70
2023/06/21 10:47:50;;;;;;;;;;;;;;;28.60;49.85;97046.13;4216354;28;5681;-70
2023/06/21 10:49:57;;;;;;;;;;;;;;;28.60;49.63;97048.03;4217701;28;5641;-70
2023/06/21 10:52:02;;;;;;;;;;;;;;;28.60;49.70;97045.31;4215701;28;5626;-69
2023/06/21 10:54:06;;;;;;;;;;;;;;;28.59;49.68;97032.84;4216425;28;5624;-71
2023/06/21 10:56:10;;;;;;;;;;;;;;;28.58;49.68;97015.72;4214108;28;5651;-69
2023/06/21 10:58:15;;;;;;;;;;;;;;;28.56;49.71;97009.78;4204242;28;5624;-70
2023/06/21 11:00:20;;;;;;;;;;;;;;;28.58;49.49;97006.75;4217592;28;5659;-70
2023/06/21 11:02:23;;;;;;;;;;;;;;;28.61;49.53;97017.00;4217718;28;5089;-71
2023/06/21 11:04:26;;;;;;;;;;;;;;;28.63;49.54;97026.47;4217564;28;5740;-70
2023/06/21 11:06:34;;;;;;;;;;;;;;;28.66;49.43;97025.09;4209612;28;5748;-70
2023/06/21 11:08:42;;;;;;;;;;;;;;;28.67;49.43;97029.41;4217017;28;5629;-70
2023/06/21 11:10:48;;;;;;;;;;;;;;;28.70;49.37;97039.69;4217439;28;5681;-70
2023/06/21 11:12:56;;;;;;;;;;;;;;;28.70;49.12;97048.66;4215737;28;5660;-70
2023/06/21 11:15:00;;;;;;;;;;;;;;;28.69;48.95;97052.47;4215648;28;5669;-70
2023/06/21 11:17:11;;;;;;;;;;;;;;;28.72;48.75;97064.66;4216257;28;5100;-70
2023/06/21 11:19:17;;;;;;;;;;;;;;;28.73;48.92;97085.31;4217190;28;5604;-70
2023/06/21 11:21:37;;;;;;;;;;;;;;;28.75;48.54;97090.44;4217218;28;6109;-70
2023/06/21 11:23:50;;;;;;;;;;;;;;;28.74;48.27;97091.56;4209430;28;6420;-70
2023/06/21 11:25:58;;;;;;;;;;;;;;;28.75;48.09;97106.75;4217224;28;5625;-70
2023/06/21 11:28:23;;;;;;;;;;;;;;;28.75;47.96;97096.69;4214157;28;5696;-69
2023/06/21 11:30:28;;;;;;;;;;;;;;;28.71;47.72;97109.28;4202311;28;5631;-64
2023/06/21 11:32:31;;;;;;;;;;;;;;;28.68;47.83;97124.31;4214727;28;5605;-64
2023/06/21 11:34:35;;;;;;;;;;;;;;;28.67;47.87;97151.81;4216620;28;6415;-65
2023/06/21 11:36:38;;;;;;;;;;;;;;;28.63;47.69;97161.66;4213646;28;5878;-64
2023/06/21 11:38:50;;;;;;;;;;;;;;;28.61;47.59;97180.22;4208007;28;6302;-64
2023/06/21 11:40:53;;;;;;;;;;;;;;;28.59;47.69;97190.59;4201540;28;5886;-72
2023/06/21 11:43:06;;;;;;;;;;;;;;;28.57;47.69;97181.94;4208297;28;5737;-73
2023/06/21 11:45:23;;;;;;;;;;;;;;;28.57;47.64;97179.22;4211107;28;5609;-69
2023/06/21 11:47:28;;;;;;;;;;;;;;;28.56;47.95;97185.75;4206077;28;5625;-73
2023/06/21 11:49:34;;;;;;;;;;;;;;;28.55;48.07;97167.81;4204578;28;5652;-70
2023/06/21 11:51:49;;;;;;;;;;;;;;;28.53;48.32;97168.09;4215197;28;5708;-70
2023/06/21 11:53:53;;;;;;;;;;;;;;;28.50;48.49;97186.94;4210937;28;5781;-68
2023/06/21 11:55:58;;;;;;;;;;;;;;;28.49;48.60;97174.44;4214000;28;5609;-67
2023/06/21 11:58:01;;;;;;;;;;;;;;;28.47;48.82;97157.63;4206799;28;5691;-68
2023/06/21 12:00:05;;;;;;;;;;;;;;;28.44;49.11;97147.34;4208572;28;5784;-68
2023/06/21 12:02:13;;;;;;;;;;;;;;;28.38;48.98;97133.03;4215561;28;5887;-68
2023/06/21 12:04:27;;;;;;;;;;;;;;;28.35;49.18;97090.94;4213895;28;5818;-68
2023/06/21 12:06:30;;;;;;;;;;;;;;;28.34;49.22;97078.47;4209420;28;5660;-67
2023/06/21 12:08:35;;;;;;;;;;;;;;;28.27;49.34;97078.03;4211559;28;5760;-70
2023/06/21 12:10:38;;;;;;;;;;;;;;;28.20;49.30;97072.19;4212827;28;5669;-69
2023/06/21 12:12:43;;;;;;;;;;;;;;;28.17;49.47;97072.75;4209674;28;5824;-69
2023/06/21 12:14:46;;;;;;;;;;;;;;;28.20;49.30;97069.44;4207208;28;5766;-69
2023/06/21 12:16:50;;;;;;;;;;;;;;;28.24;49.31;97078.63;4210519;28;5870;-72
2023/06/21 12:18:53;;;;;;;;;;;;;;;28.27;49.41;97063.59;4208874;28;5080;-71
2023/06/21 12:20:59;;;;;;;;;;;;;;;28.29;49.35;97062.22;4203819;28;5735;-66
2023/06/21 12:23:02;;;;;;;;;;;;;;;28.33;49.49;97065.16;4211820;28;5616;-66
2023/06/21 12:25:06;;;;;;;;;;;;;;;28.36;49.56;97081.69;4212472;28;5687;-66
2023/06/21 12:27:13;;;;;;;;;;;;;;;28.38;49.56;97093.06;4212030;28;5803;-66
2023/06/21 12:29:16;;;;;;;;;;;;;;;28.40;49.64;97093.56;4213980;28;5715;-66
2023/06/21 12:31:20;;;;;;;;;;;;;;;28.41;49.68;97070.69;4213147;28;6373;-66
2023/06/21 12:33:24;;;;;;;;;;;;;;;28.39;49.93;97015.81;4207641;28;5783;-66
2023/06/21 12:35:28;;;;;;;;;;;;;;;28.40;49.84;97033.72;4209916;28;5823;-66
2023/06/21 12:37:33;;;;;;;;;;;;;;;28.39;49.91;97031.31;4212835;28;6774;-66
2023/06/21 12:39:39;;;;;;;;;;;;;;;28.38;50.20;97035.94;4210199;28;5617;-66
2023/06/21 12:41:44;;;;;;;;;;;;;;;28.36;49.96;97051.78;4210505;28;5661;-66
2023/06/21 12:43:49;;;;;;;;;;;;;;;28.36;50.22;97053.69;4188085;28;5813;-66
2023/06/21 12:45:55;;;;;;;;;;;;;;;28.37;50.18;97058.81;4211767;28;5816;-66
2023/06/21 12:47:58;;;;;;;;;;;;;;;28.38;50.08;97063.16;4212357;28;5827;-67
2023/06/21 12:50:01;;;;;;;;;;;;;;;28.38;49.86;97063.16;4211145;28;5812;-66
2023/06/21 12:52:05;;;;;;;;;;;;;;;28.40;50.06;97065.56;4215783;28;5610;-66
2023/06/21 12:54:11;;;;;;;;;;;;;;;28.42;50.15;97079.66;4215262;28;5704;-67
2023/06/21 12:56:14;;;;;;;;;;;;;;;28.44;50.13;97093.78;4211693;28;5625;-67
2023/06/21 12:58:19;;;;;;;;;;;;;;;28.44;50.24;97087.53;4212035;28;5632;-66
2023/06/21 13:00:24;;;;;;;;;;;;;;;28.43;50.30;97092.16;4213705;28;5916;-67
2023/06/21 13:02:27;;;;;;;;;;;;;;;28.45;50.24;97103.53;4211239;28;5707;-67
2023/06/21 13:04:30;;;;;;;;;;;;;;;28.46;50.23;97074.44;4209312;28;5743;-67
2023/06/21 13:06:33;;;;;;;;;;;;;;;28.45;50.13;97051.06;4215562;28;5880;-67
2023/06/21 13:08:36;;;;;;;;;;;;;;;28.47;50.30;97048.84;4211742;28;5629;-67
2023/06/21 13:10:40;;;;;;;;;;;;;;;28.49;50.03;97052.06;4213829;28;5751;-67
2023/06/21 13:12:43;;;;;;;;;;;;;;;28.50;50.09;97045.53;4210023;28;5727;-67
2023/06/21 13:14:46;;;;;;;;;;;;;;;28.49;50.06;97036.56;4211987;28;5838;-67
2023/06/21 13:16:49;;;;;;;;;;;;;;;28.51;50.00;97058.00;4213390;28;5793;-67
2023/06/21 13:18:53;;;;;;;;;;;;;;;28.51;49.84;97068.88;4213656;28;5782;-67
2023/06/21 13:20:57;;;;;;;;;;;;;;;28.54;50.00;97080.00;4216142;28;5830;-66
2023/06/21 13:23:00;;;;;;;;;;;;;;;28.57;49.98;97081.28;4214454;28;5633;-67
2023/06/21 13:25:04;;;;;;;;;;;;;;;28.58;49.75;97082.91;4207797;28;5855;-67
2023/06/21 13:27:09;;;;;;;;;;;;;;;28.61;49.42;97063.25;4210772;28;5632;-67
2023/06/21 13:29:12;;;;;;;;;;;;;;;28.65;49.52;97047.94;4206162;28;5794;-67
2023/06/21 13:31:15;;;;;;;;;;;;;;;28.68;49.50;97053.59;4213215;28;5721;-67
2023/06/21 13:33:20;;;;;;;;;;;;;;;28.70;49.75;97066.88;4208552;28;6564;-68
2023/06/21 13:35:24;;;;;;;;;;;;;;;28.72;49.74;97078.25;4203015;28;5648;-68
2023/06/21 13:37:26;;;;;;;;;;;;;;;28.73;49.75;97079.06;4208483;28;5782;-67
2023/06/21 13:39:29;;;;;;;;;;;;;;;28.72;49.83;97080.97;4202967;28;5719;-67
2023/06/21 13:41:32;;;;;;;;;;;;;;;28.73;49.80;97090.75;4208316;28;5716;-65
2023/06/21 13:43:37;;;;;;;;;;;;;;;28.76;49.79;97095.56;4217455;28;5620;-65
2023/06/21 13:45:41;;;;;;;;;;;;;;;28.76;49.96;97090.13;4208852;28;5815;-65
2023/06/21 13:47:44;;;;;;;;;;;;;;;28.77;49.57;97093.66;4210092;28;6375;-64
2023/06/21 13:49:48;;;;;;;;;;;;;;;28.75;50.13;97093.97;4214058;28;5803;-66
2023/06/21 13:51:51;;;;;;;;;;;;;;;28.75;50.22;97087.72;4216434;28;5699;-65
2023/06/21 13:53:55;;;;;;;;;;;;;;;28.74;50.11;97105.16;4217095;28;7691;-66
2023/06/21 13:55:58;;;;;;;;;;;;;;;28.73;50.10;97112.50;4209572;28;5121;-66
2023/06/21 13:58:00;;;;;;;;;;;;;;;28.73;50.13;97112.50;4209189;28;5614;-66
2023/06/21 14:00:08;;;;;;;;;;;;;;;28.73;50.30;97101.63;4209665;28;5652;-67
2023/06/21 14:02:11;;;;;;;;;;;;;;;28.74;50.39;97086.91;4208989;28;5651;-67
2023/06/21 14:04:14;;;;;;;;;;;;;;;28.76;50.54;97083.88;4206413;28;5616;-70
2023/06/21 14:06:17;;;;;;;;;;;;;;;28.77;50.48;97070.00;4208169;28;5887;-70
2023/06/21 14:08:20;;;;;;;;;;;;;;;28.78;50.58;97070.81;4215511;28;5924;-70
2023/06/21 14:10:23;;;;;;;;;;;;;;;28.79;50.73;97059.63;4209165;28;5868;-85
2023/06/21 14:12:26;;;;;;;;;;;;;;;28.82;50.69;97055.47;4203833;28;5748;-80
2023/06/21 14:14:29;;;;;;;;;;;;;;;28.83;50.79;97052.47;4210477;28;5945;-77
2023/06/21 14:16:34;;;;;;;;;;;;;;;28.81;50.63;97054.69;4208507;28;5745;-81
2023/06/21 14:18:37;;;;;;;;;;;;;;;28.80;50.40;97065.88;4210270;28;5830;-79
2023/06/21 14:20:50;;;;;;;;;;;;;;;28.80;49.90;97066.69;4213076;28;6718;-78
2023/06/21 14:22:53;;;;;;;;;;;;;;;28.84;49.41;97067.66;4209152;28;7767;-79
2023/06/21 14:24:56;;;;;;;;;;;;;;;28.82;49.06;97060.94;4209514;28;5692;-75
2023/06/21 14:27:01;;;;;;;;;;;;;;;28.82;48.93;97050.03;4208852;28;5641;-79
2023/06/21 14:29:04;;;;;;;;;;;;;;;28.83;48.54;97048.94;4209754;28;5108;-77
2023/06/21 14:31:07;;;;;;;;;;;;;;;28.83;48.36;97038.03;4216132;28;5753;-76
2023/06/21 14:33:12;;;;;;;;;;;;;;;28.85;48.47;97033.09;4211261;28;5798;-75
2023/06/21 14:35:15;;;;;;;;;;;;;;;28.84;48.25;97037.75;4216265;28;5771;-76
2023/06/21 14:37:18;;;;;;;;;;;;;;;28.86;48.38;97038.25;4208571;28;5779;-76
2023/06/21 14:39:20;;;;;;;;;;;;;;;28.88;48.41;97037.97;4212454;28;5644;-74
2023/06/21 14:41:24;;;;;;;;;;;;;;;28.88;48.41;97033.34;4215655;28;5722;-75
2023/06/21 14:43:27;;;;;;;;;;;;;;;28.84;48.53;97018.69;4212654;28;5621;-73